createdAt,value
2018-03-06T00:00:09.449Z,98.27
2018-03-06T00:02:36.849Z,101.27
2018-03-06T00:05:04.238Z,98.23
2018-03-06T00:07:31.661Z,95.47
2018-03-06T00:09:59.075Z,101.00
2018-03-06T00:12:26.463Z,94.07
2018-03-06T00:14:53.908Z,108.03
2018-03-06T00:17:21.369Z,94.17
2018-03-06T00:19:48.803Z,106.70
2018-03-06T00:22:16.230Z,93.80
2018-03-06T00:24:43.642Z,103.40
2018-03-06T00:27:11.049Z,102.60
2018-03-06T00:29:39.452Z,97.80
2018-03-06T00:32:06.872Z,108.90
2018-03-06T00:34:34.288Z,89.43
2018-03-06T00:37:01.666Z,96.90
2018-03-06T00:39:29.066Z,93.37
2018-03-06T00:41:56.479Z,93.30
2018-03-06T00:44:23.871Z,101.77
2018-03-06T00:46:51.309Z,104.63
2018-03-06T00:49:18.682Z,94.97
2018-03-06T00:51:46.070Z,97.77
2018-03-06T00:54:13.467Z,105.63
2018-03-06T00:56:40.862Z,104.13
2018-03-06T00:59:08.277Z,100.97
2018-03-06T01:01:36.209Z,104.43
2018-03-06T01:04:03.590Z,120.23
2018-03-06T01:06:30.977Z,109.50
2018-03-06T01:08:58.394Z,122.73
2018-03-06T01:11:25.825Z,101.97
2018-03-06T01:13:53.202Z,110.07
2018-03-06T01:16:20.605Z,111.03
2018-03-06T01:18:48.034Z,109.67
2018-03-06T01:21:15.410Z,109.30
2018-03-06T01:23:42.821Z,112.10
2018-03-06T01:26:13.734Z,109.87
2018-03-06T01:28:41.145Z,103.57
2018-03-06T01:31:08.581Z,113.67
2018-03-06T01:33:35.953Z,116.70
2018-03-06T01:36:03.350Z,106.43
2018-03-06T01:38:30.777Z,106.50
2018-03-06T01:40:58.206Z,128.07
2018-03-06T01:43:25.608Z,111.30
2018-03-06T01:45:53.133Z,113.40
2018-03-06T01:48:20.517Z,98.63
2018-03-06T01:50:47.909Z,108.37
2018-03-06T01:53:15.333Z,101.40
2018-03-06T01:55:42.739Z,116.23
2018-03-06T01:58:13.413Z,109.03
2018-03-06T02:00:40.789Z,109.33
2018-03-06T02:03:08.218Z,110.57
2018-03-06T02:05:35.603Z,98.43
2018-03-06T02:08:02.988Z,107.73
2018-03-06T02:10:30.470Z,108.83
2018-03-06T02:12:57.906Z,109.67
2018-03-06T02:15:25.305Z,105.60
2018-03-06T02:17:52.697Z,113.57
2018-03-06T02:20:20.138Z,120.77
2018-03-06T02:22:50.621Z,114.40
2018-03-06T02:25:18.011Z,111.70
2018-03-06T02:27:45.442Z,110.93
2018-03-06T02:30:12.818Z,114.40
2018-03-06T02:32:40.242Z,108.83
2018-03-06T02:35:07.625Z,121.63
2018-03-06T02:37:35.018Z,119.33
2018-03-06T02:40:02.456Z,101.93
2018-03-06T02:42:29.835Z,89.60
2018-03-06T02:44:57.230Z,109.60
2018-03-06T02:47:24.660Z,112.03
2018-03-06T02:49:52.112Z,103.70
2018-03-06T02:52:22.488Z,111.20
2018-03-06T02:54:56.128Z,105.63
2018-03-06T02:57:23.545Z,117.47
2018-03-06T02:59:50.936Z,114.13
2018-03-06T03:02:18.350Z,112.87
2018-03-06T03:04:45.793Z,97.37
2018-03-06T03:07:13.171Z,121.90
2018-03-06T03:09:40.545Z,115.60
2018-03-06T03:12:07.974Z,102.10
2018-03-06T03:14:38.849Z,117.63
2018-03-06T03:17:06.239Z,109.87
2018-03-06T03:19:33.623Z,119.17
2018-03-06T03:22:01.041Z,109.43
2018-03-06T03:24:28.445Z,119.30
2018-03-06T03:26:59.577Z,109.80
2018-03-06T03:29:30.325Z,105.50
2018-03-06T03:31:57.704Z,116.80
2018-03-06T03:34:25.133Z,110.60
2018-03-06T03:36:52.531Z,104.50
2018-03-06T03:39:23.721Z,113.97
2018-03-06T03:41:51.129Z,112.37
2018-03-06T03:44:18.557Z,103.93
2018-03-06T03:46:45.965Z,113.57
2018-03-06T03:49:13.356Z,115.10
2018-03-06T03:51:40.786Z,121.07
2018-03-06T03:54:08.169Z,119.50
2018-03-06T03:56:35.595Z,129.17
2018-03-06T03:59:02.989Z,100.37
2018-03-06T04:01:30.386Z,110.43
2018-03-06T04:03:57.831Z,104.07
2018-03-06T04:06:25.225Z,115.10
2018-03-06T04:08:52.666Z,112.10
2018-03-06T04:11:20.041Z,114.43
2018-03-06T04:13:47.486Z,103.10
2018-03-06T04:16:14.882Z,121.50
2018-03-06T04:18:42.401Z,110.20
2018-03-06T04:21:09.894Z,123.77
2018-03-06T04:23:38.184Z,129.27
2018-03-06T04:26:07.537Z,120.07
2018-03-06T04:28:34.928Z,117.13
2018-03-06T04:31:02.329Z,118.23
2018-03-06T04:33:29.762Z,109.40
2018-03-06T04:35:57.205Z,110.97
2018-03-06T04:38:24.630Z,116.30
2018-03-06T04:40:52.033Z,116.47
2018-03-06T04:43:19.458Z,119.07
2018-03-06T04:45:46.895Z,119.03
2018-03-06T04:48:14.319Z,123.73
2018-03-06T04:50:41.738Z,115.57
2018-03-06T04:53:09.151Z,133.00
2018-03-06T04:55:36.568Z,120.90
2018-03-06T04:58:03.957Z,121.50
2018-03-06T05:00:31.457Z,126.67
2018-03-06T05:02:58.858Z,118.43
2018-03-06T05:05:26.297Z,125.37
2018-03-06T05:07:53.693Z,121.03
2018-03-06T05:10:21.106Z,115.27
2018-03-06T05:12:48.506Z,128.50
2018-03-06T05:15:15.942Z,120.73
2018-03-06T05:17:43.344Z,122.60
2018-03-06T05:20:10.734Z,134.73
2018-03-06T05:22:38.157Z,122.03
2018-03-06T05:25:05.535Z,126.70
2018-03-06T05:27:32.946Z,126.97
2018-03-06T05:30:00.409Z,121.73
2018-03-06T05:32:27.795Z,128.30
2018-03-06T05:34:55.230Z,124.60
2018-03-06T05:37:22.609Z,111.70
2018-03-06T05:39:50.010Z,123.13
2018-03-06T05:42:17.429Z,121.57
2018-03-06T05:44:44.879Z,123.40
2018-03-06T05:47:12.285Z,124.90
2018-03-06T05:49:39.685Z,121.67
2018-03-06T05:52:07.117Z,129.67
2018-03-06T05:54:34.506Z,126.33
2018-03-06T05:57:01.898Z,110.53
2018-03-06T05:59:29.345Z,132.73
2018-03-06T06:01:56.727Z,131.43
2018-03-06T06:04:24.126Z,114.87
2018-03-06T06:06:51.558Z,125.90
2018-03-06T06:09:18.952Z,127.37
2018-03-06T06:11:46.345Z,134.30
2018-03-06T06:14:13.768Z,128.67
2018-03-06T06:16:41.134Z,134.60
2018-03-06T06:19:08.569Z,129.73
2018-03-06T06:21:35.934Z,115.83
2018-03-06T06:24:09.369Z,117.70
2018-03-06T06:26:36.741Z,121.53
2018-03-06T06:29:07.557Z,117.47
2018-03-06T06:31:34.954Z,106.47
2018-03-06T06:34:02.317Z,130.63
2018-03-06T06:36:29.745Z,109.17
2018-03-06T06:38:57.114Z,115.27
2018-03-06T06:41:24.477Z,118.53
2018-03-06T06:43:51.890Z,123.37
2018-03-06T06:46:19.252Z,117.63
2018-03-06T06:48:46.622Z,114.17
2018-03-06T06:51:14.345Z,117.40
2018-03-06T06:53:41.750Z,124.60
2018-03-06T06:56:09.122Z,119.13
2018-03-06T06:58:36.534Z,126.57
2018-03-06T07:01:03.905Z,120.03
2018-03-06T07:03:31.294Z,119.50
2018-03-06T07:05:58.706Z,122.80
2018-03-06T07:08:26.085Z,115.87
2018-03-06T07:10:56.998Z,121.37
2018-03-06T07:13:24.408Z,126.83
2018-03-06T07:15:51.825Z,129.73
2018-03-06T07:18:19.184Z,120.60
2018-03-06T07:20:46.600Z,124.33
2018-03-06T07:23:13.973Z,117.50
2018-03-06T07:25:41.331Z,117.97
2018-03-06T07:28:08.727Z,117.40
2018-03-06T07:30:36.118Z,122.90
2018-03-06T07:33:03.478Z,117.20
2018-03-06T07:35:30.880Z,116.70
2018-03-06T07:37:58.245Z,120.03
2018-03-06T07:40:25.661Z,115.73
2018-03-06T07:42:52.853Z,108.33
2018-03-06T07:45:20.273Z,112.20
2018-03-06T07:47:47.734Z,122.77
2018-03-06T07:50:15.182Z,116.60
2018-03-06T07:52:42.613Z,118.53
2018-03-06T07:55:10.013Z,107.90
2018-03-06T07:57:37.425Z,105.60
2018-03-06T08:00:04.809Z,107.53
2018-03-06T08:02:32.233Z,120.40
2018-03-06T08:04:59.629Z,113.93
2018-03-06T08:07:27.049Z,117.43
2018-03-06T08:09:54.447Z,117.67
2018-03-06T08:12:21.821Z,102.97
2018-03-06T08:14:49.219Z,107.97
2018-03-06T08:17:16.678Z,114.60
2018-03-06T08:19:44.151Z,118.37
2018-03-06T08:22:11.514Z,113.40
2018-03-06T08:24:38.943Z,103.23
2018-03-06T08:27:06.379Z,103.53
2018-03-06T08:29:33.752Z,100.23
2018-03-06T08:32:01.153Z,113.07
2018-03-06T08:34:28.526Z,102.93
2018-03-06T08:36:55.918Z,97.90
2018-03-06T08:39:23.303Z,113.20
2018-03-06T08:41:50.734Z,107.40
2018-03-06T08:44:18.210Z,109.17
2018-03-06T08:46:45.573Z,108.23
2018-03-06T08:49:12.933Z,111.70
2018-03-06T08:51:40.352Z,107.37
2018-03-06T08:54:07.755Z,102.67
2018-03-06T08:56:38.885Z,97.37
2018-03-06T08:59:06.359Z,103.27
2018-03-06T09:01:33.758Z,99.80
2018-03-06T09:04:01.126Z,101.80
2018-03-06T09:06:28.565Z,98.63
2018-03-06T09:08:55.978Z,121.17
2018-03-06T09:11:23.376Z,113.83
2018-03-06T09:13:50.749Z,102.10
2018-03-06T09:16:18.187Z,105.57
2018-03-06T09:18:45.678Z,96.00
2018-03-06T09:21:13.098Z,95.43
2018-03-06T09:23:40.494Z,99.40
2018-03-06T09:26:07.863Z,97.37
2018-03-06T09:28:35.255Z,96.70
2018-03-06T09:31:02.661Z,103.50
2018-03-06T09:33:30.035Z,102.13
2018-03-06T09:35:57.410Z,124.20
2018-03-06T09:38:24.828Z,110.43
2018-03-06T09:40:52.194Z,101.10
2018-03-06T09:43:19.590Z,108.00
2018-03-06T09:45:47.010Z,103.93
2018-03-06T09:48:14.424Z,104.37
2018-03-06T09:50:42.171Z,104.83
2018-03-06T09:53:09.549Z,104.60
2018-03-06T09:55:36.980Z,106.03
2018-03-06T09:58:04.349Z,107.60
2018-03-06T10:00:31.809Z,93.87
2018-03-06T10:02:59.259Z,98.57
2018-03-06T10:05:26.613Z,94.43
2018-03-06T10:07:54.020Z,90.80
2018-03-06T10:10:21.401Z,83.10
2018-03-06T10:12:48.825Z,91.77
2018-03-06T10:15:16.214Z,99.60
2018-03-06T10:17:43.843Z,92.13
2018-03-06T10:20:11.290Z,98.40
2018-03-06T10:22:38.689Z,100.70
2018-03-06T10:25:06.110Z,92.33
2018-03-06T10:27:33.465Z,100.93
2018-03-06T10:30:00.886Z,96.87
2018-03-06T10:32:28.258Z,99.73
2018-03-06T10:34:55.784Z,101.83
2018-03-06T10:37:23.194Z,92.37
2018-03-06T10:39:50.625Z,97.47
2018-03-06T10:42:17.997Z,94.43
2018-03-06T10:44:45.397Z,106.77
2018-03-06T10:47:12.816Z,107.90
2018-03-06T10:49:40.230Z,96.07
2018-03-06T10:52:07.589Z,100.37
2018-03-06T10:54:34.999Z,102.60
2018-03-06T10:57:02.530Z,112.97
2018-03-06T10:59:29.942Z,108.17
2018-03-06T11:01:57.345Z,116.47
2018-03-06T11:04:24.782Z,111.63
2018-03-06T11:06:52.161Z,111.13
2018-03-06T11:09:19.564Z,106.87
2018-03-06T11:11:46.997Z,110.30
2018-03-06T11:14:14.404Z,104.40
2018-03-06T11:16:41.879Z,121.20
2018-03-06T11:19:09.238Z,99.73
2018-03-06T11:21:36.609Z,105.47
2018-03-06T11:24:04.020Z,96.90
2018-03-06T11:26:31.395Z,103.17
2018-03-06T11:28:58.794Z,102.13
2018-03-06T11:31:26.208Z,91.30
2018-03-06T11:33:53.570Z,79.70
2018-03-06T11:36:20.965Z,91.27
2018-03-06T11:38:48.339Z,93.50
2018-03-06T11:41:15.694Z,97.50
2018-03-06T11:43:43.088Z,94.47
2018-03-06T11:46:10.446Z,98.53
2018-03-06T11:48:37.879Z,104.00
2018-03-06T11:51:05.237Z,109.13
2018-03-06T11:53:32.620Z,110.97
2018-03-06T11:56:00.067Z,114.53
2018-03-06T11:58:27.476Z,91.87
2018-03-06T12:00:54.901Z,98.40
2018-03-06T12:03:22.334Z,104.40
2018-03-06T12:05:49.702Z,96.33
2018-03-06T12:08:17.062Z,89.73
2018-03-06T12:10:44.693Z,100.33
2018-03-06T12:13:12.070Z,102.50
2018-03-06T12:15:39.475Z,108.63
2018-03-06T12:18:06.862Z,101.50
2018-03-06T12:20:34.360Z,96.67
2018-03-06T12:23:01.773Z,93.83
2018-03-06T12:25:29.145Z,106.27
2018-03-06T12:27:56.567Z,105.70
2018-03-06T12:30:23.958Z,100.47
2018-03-06T12:32:51.368Z,109.60
2018-03-06T12:35:18.770Z,103.50
2018-03-06T12:37:46.184Z,107.30
2018-03-06T12:40:13.653Z,94.50
2018-03-06T12:42:41.222Z,102.53
2018-03-06T12:45:08.631Z,101.60
2018-03-06T12:47:35.986Z,97.53
2018-03-06T12:50:03.439Z,110.00
2018-03-06T12:52:30.811Z,110.40
2018-03-06T12:54:58.231Z,107.20
2018-03-06T12:57:25.634Z,109.90
2018-03-06T12:59:53.015Z,107.77
2018-03-06T13:02:20.390Z,116.03
2018-03-06T13:04:47.813Z,119.83
2018-03-06T13:07:15.202Z,118.77
2018-03-06T13:09:42.561Z,116.27
2018-03-06T13:12:09.957Z,112.40
2018-03-06T13:14:37.324Z,104.00
2018-03-06T13:17:04.731Z,104.27
2018-03-06T13:19:32.151Z,113.03
2018-03-06T13:21:59.579Z,116.07
2018-03-06T13:24:27.547Z,101.47
2018-03-06T13:26:54.956Z,98.17
2018-03-06T13:29:22.332Z,102.13
2018-03-06T13:31:49.716Z,107.03
2018-03-06T13:34:17.913Z,104.50
2018-03-06T13:36:45.346Z,122.83
2018-03-06T13:39:12.728Z,119.80
2018-03-06T13:41:40.104Z,115.20
2018-03-06T13:46:50.877Z,128.30
2018-03-06T13:49:18.277Z,132.83
2018-03-06T13:51:45.659Z,135.60
2018-03-06T13:54:13.082Z,147.93
2018-03-06T13:56:40.445Z,153.93
2018-03-06T13:59:07.867Z,169.93
2018-03-06T14:01:35.226Z,171.30
2018-03-06T14:04:02.597Z,178.83
2018-03-06T14:06:29.990Z,167.27
2018-03-06T14:08:57.363Z,174.13
2018-03-06T14:11:24.754Z,191.37
2018-03-06T14:13:52.130Z,191.67
2018-03-06T14:16:19.538Z,190.70
2018-03-06T14:18:46.914Z,201.70
2018-03-06T14:21:14.286Z,195.27
2018-03-06T14:23:41.693Z,202.30
2018-03-06T14:26:09.059Z,204.10
2018-03-06T14:28:36.434Z,198.07
2018-03-06T14:31:03.838Z,195.90
2018-03-06T14:33:31.250Z,196.00
2018-03-06T14:35:58.621Z,186.83
2018-03-06T14:38:25.983Z,166.07
2018-03-06T14:40:53.390Z,158.20
2018-03-06T14:43:20.763Z,162.63
2018-03-06T14:45:48.161Z,179.73
2018-03-06T14:48:15.534Z,155.27
2018-03-06T14:50:43.804Z,154.17
2018-03-06T14:53:11.214Z,159.67
2018-03-06T14:55:38.594Z,166.13
2018-03-06T14:58:05.959Z,182.97
2018-03-06T15:00:33.390Z,164.70
2018-03-06T15:03:00.801Z,173.50
2018-03-06T15:05:28.170Z,176.50
2018-03-06T15:07:55.581Z,165.60
2018-03-06T15:10:22.980Z,181.90
2018-03-06T15:12:50.374Z,187.10
2018-03-06T15:15:17.784Z,183.47
2018-03-06T15:17:45.237Z,186.67
2018-03-06T15:20:12.603Z,194.33
2018-03-06T15:22:40.013Z,180.90
2018-03-06T15:25:07.399Z,186.33
2018-03-06T15:27:34.762Z,188.07
2018-03-06T15:30:04.079Z,191.97
2018-03-06T15:32:31.452Z,205.20
2018-03-06T15:35:02.041Z,194.53
2018-03-06T15:37:29.408Z,190.53
2018-03-06T15:39:56.846Z,193.77
2018-03-06T15:42:24.255Z,179.83
2018-03-06T15:44:51.735Z,186.07
2018-03-06T15:47:19.226Z,184.80
2018-03-06T15:49:46.618Z,198.47
2018-03-06T15:52:14.050Z,183.47
2018-03-06T15:54:41.563Z,183.97
2018-03-06T15:57:09.091Z,182.07
2018-03-06T15:59:37.414Z,184.47
2018-03-06T16:02:04.960Z,171.47
2018-03-06T16:04:32.363Z,173.97
2018-03-06T16:06:59.778Z,174.23
2018-03-06T16:09:27.224Z,174.77
2018-03-06T16:11:54.678Z,188.27
2018-03-06T16:14:27.979Z,179.20
2018-03-06T16:16:55.436Z,180.87
2018-03-06T16:19:22.862Z,184.13
2018-03-06T16:21:50.267Z,197.47
2018-03-06T16:24:17.832Z,182.00
2018-03-06T16:26:45.269Z,196.07
2018-03-06T16:29:12.712Z,183.20
2018-03-06T16:31:40.118Z,185.20
2018-03-06T16:34:07.663Z,179.83
2018-03-06T16:36:38.322Z,184.50
2018-03-06T16:39:08.990Z,196.57
2018-03-06T16:41:39.565Z,196.43
2018-03-06T16:44:07.878Z,194.63
2018-03-06T16:46:38.919Z,189.97
2018-03-06T16:49:09.856Z,207.97
2018-03-06T16:51:37.254Z,192.20
2018-03-06T16:54:04.658Z,186.33
2018-03-06T16:56:32.108Z,192.17
2018-03-06T16:59:02.619Z,197.10
2018-03-06T17:01:30.043Z,196.50
2018-03-06T17:03:57.452Z,206.03
2018-03-06T17:06:25.024Z,189.97
2018-03-06T17:08:52.435Z,195.03
2018-03-06T17:11:19.866Z,190.37
2018-03-06T17:13:47.334Z,199.97
2018-03-06T17:16:14.955Z,199.87
2018-03-06T17:18:42.362Z,204.60
2018-03-06T17:21:09.771Z,194.63
2018-03-06T17:23:37.223Z,189.13
2018-03-06T17:26:04.710Z,209.07
2018-03-06T17:28:32.150Z,206.43
2018-03-06T17:30:59.566Z,198.90
2018-03-06T17:33:30.221Z,203.23
2018-03-06T17:35:57.651Z,202.10
2018-03-06T17:38:25.062Z,203.30
2018-03-06T17:40:52.535Z,195.37
2018-03-06T17:43:20.163Z,198.40
2018-03-06T17:45:47.818Z,209.33
2018-03-06T17:48:15.358Z,215.90
2018-03-06T17:50:42.940Z,202.17
2018-03-06T17:53:10.406Z,200.37
2018-03-06T17:55:37.854Z,204.07
2018-03-06T17:58:05.364Z,200.63
2018-03-06T18:00:32.771Z,196.13
2018-03-06T18:03:00.328Z,188.50
2018-03-06T18:05:27.722Z,194.53
2018-03-06T18:07:55.240Z,194.50
2018-03-06T18:10:22.734Z,186.53
2018-03-06T18:12:50.130Z,182.37
2018-03-06T18:15:17.571Z,170.07
2018-03-06T18:17:45.014Z,187.60
2018-03-06T18:20:12.455Z,172.93
2018-03-06T18:22:39.850Z,179.33
2018-03-06T18:25:07.288Z,186.70
2018-03-06T18:27:34.686Z,174.70
2018-03-06T18:30:02.182Z,173.43
2018-03-06T18:32:29.639Z,156.87
2018-03-06T18:34:57.164Z,167.67
2018-03-06T18:37:24.643Z,191.63
2018-03-06T18:39:52.062Z,183.43
2018-03-06T18:42:19.494Z,170.53
2018-03-06T18:44:47.096Z,176.47
2018-03-06T18:47:14.586Z,184.73
2018-03-06T18:49:47.919Z,176.67
2018-03-06T18:52:15.456Z,183.13
2018-03-06T18:54:42.854Z,180.90
2018-03-06T18:57:11.212Z,185.63
2018-03-06T18:59:38.646Z,184.67
2018-03-06T19:02:11.959Z,202.10
2018-03-06T19:04:45.342Z,197.27
2018-03-06T19:07:12.799Z,194.87
2018-03-06T19:09:40.198Z,184.90
2018-03-06T19:12:07.690Z,185.17
2018-03-06T19:14:35.146Z,179.20
2018-03-06T19:17:02.598Z,185.90
2018-03-06T19:19:30.083Z,179.00
2018-03-06T19:21:57.643Z,183.27
2018-03-06T19:24:25.455Z,188.00
2018-03-06T19:26:53.014Z,176.17
2018-03-06T19:29:20.460Z,179.80
2018-03-06T19:31:47.979Z,175.80
2018-03-06T19:34:15.341Z,179.13
2018-03-06T19:36:42.961Z,169.93
2018-03-06T19:39:10.362Z,188.17
2018-03-06T19:41:37.782Z,172.70
2018-03-06T19:44:18.860Z,173.13
2018-03-06T19:46:46.234Z,164.70
2018-03-06T19:49:13.957Z,163.63
2018-03-06T19:51:41.391Z,165.70
2018-03-06T19:54:08.783Z,159.23
2018-03-06T19:56:36.206Z,164.27
2018-03-06T19:59:03.749Z,171.10
2018-03-06T20:01:31.117Z,149.93
2018-03-06T20:03:58.497Z,156.60
2018-03-06T20:06:25.936Z,150.97
2018-03-06T20:08:53.309Z,157.07
2018-03-06T20:11:20.722Z,156.47
2018-03-06T20:13:48.106Z,151.20
2018-03-06T20:16:15.509Z,156.50
2018-03-06T20:18:42.969Z,157.27
2018-03-06T20:21:10.480Z,149.30
2018-03-06T20:23:37.963Z,154.83
2018-03-06T20:26:05.339Z,145.53
2018-03-06T20:28:32.851Z,139.73
2018-03-06T20:31:06.167Z,140.73
2018-03-06T20:33:33.640Z,137.33
2018-03-06T20:36:01.162Z,149.50
2018-03-06T20:38:34.661Z,136.47
2018-03-06T20:41:02.303Z,143.27
2018-03-06T20:43:29.885Z,136.70
2018-03-06T20:46:03.197Z,137.30
2018-03-06T20:48:30.601Z,138.73
2018-03-06T20:50:58.198Z,136.87
2018-03-06T20:53:31.337Z,130.30
2018-03-06T20:55:58.755Z,136.17
2018-03-06T20:58:26.214Z,129.33
2018-03-06T21:00:53.631Z,117.47
2018-03-06T21:03:21.050Z,124.00
2018-03-06T21:05:48.485Z,123.60
2018-03-06T21:08:15.887Z,118.07
2018-03-06T21:10:43.253Z,123.10
2018-03-06T21:13:10.671Z,112.80
2018-03-06T21:15:38.106Z,119.67
2018-03-06T21:18:06.382Z,118.10
2018-03-06T21:20:33.778Z,120.47
2018-03-06T21:23:01.182Z,110.50
2018-03-06T21:25:28.653Z,117.33
2018-03-06T21:27:56.034Z,123.07
2018-03-06T21:30:23.440Z,117.17
2018-03-06T21:32:50.860Z,121.07
2018-03-06T21:35:18.226Z,123.57
2018-03-06T21:37:45.630Z,123.33
2018-03-06T21:40:12.996Z,124.90
2018-03-06T21:42:40.434Z,121.60
2018-03-06T21:45:07.793Z,114.07
2018-03-06T21:47:35.186Z,118.37
2018-03-06T21:50:02.615Z,108.53
2018-03-06T21:52:30.014Z,112.90
2018-03-06T21:54:57.420Z,119.37
2018-03-06T21:57:24.776Z,111.53
2018-03-06T21:59:52.178Z,114.63
2018-03-06T22:02:19.550Z,119.30
2018-03-06T22:04:46.958Z,108.50
2018-03-06T22:07:14.324Z,109.63
2018-03-06T22:09:41.741Z,110.60
2018-03-06T22:12:09.121Z,107.57
2018-03-06T22:14:36.505Z,119.63
2018-03-06T22:17:03.897Z,101.40
2018-03-06T22:19:31.279Z,101.50
2018-03-06T22:21:58.678Z,103.73
2018-03-06T22:24:26.063Z,111.83
2018-03-06T22:26:53.542Z,107.83
2018-03-06T22:29:20.904Z,110.23
2018-03-06T22:31:48.283Z,101.60
2018-03-06T22:34:15.709Z,114.73
2018-03-06T22:36:43.136Z,101.00
2018-03-06T22:39:10.525Z,111.30
2018-03-06T22:41:37.950Z,106.10
2018-03-06T22:44:05.362Z,105.90
2018-03-06T22:46:32.764Z,108.83
2018-03-06T22:49:00.267Z,107.77
2018-03-06T22:51:27.631Z,100.23
2018-03-06T22:53:55.036Z,103.17
2018-03-06T22:56:22.446Z,102.53
2018-03-06T22:58:49.814Z,99.60
2018-03-06T23:01:17.409Z,101.33
2018-03-06T23:03:44.817Z,92.73
2018-03-06T23:06:12.181Z,94.73
2018-03-06T23:08:39.577Z,93.00
2018-03-06T23:11:06.949Z,103.33
2018-03-06T23:13:34.341Z,96.50
2018-03-06T23:16:01.704Z,97.03
2018-03-06T23:18:29.123Z,99.27
2018-03-06T23:20:56.513Z,91.43
2018-03-06T23:23:23.871Z,98.93
2018-03-06T23:25:51.866Z,92.60
2018-03-06T23:28:20.281Z,104.43
2018-03-06T23:30:47.646Z,98.93
2018-03-06T23:33:15.049Z,94.77
2018-03-06T23:35:42.414Z,94.17
2018-03-06T23:38:09.797Z,97.80
2018-03-06T23:40:37.205Z,99.50
2018-03-06T23:43:04.577Z,102.27
2018-03-06T23:45:32.285Z,97.57
2018-03-06T23:47:59.677Z,98.07
2018-03-06T23:50:27.045Z,102.20
2018-03-06T23:52:54.471Z,96.93
2018-03-06T23:55:21.830Z,105.73
2018-03-06T23:57:49.225Z,101.13
